sensor_id;sensor_type;location;lat;lon;timestamp;temperature;humidity
29731;DHT22;16639;51.488;0.152;2024-03-17T00:00:38;10.90;99.90
29731;DHT22;16639;51.488;0.152;2024-03-17T00:03:08;10.80;99.90
29731;DHT22;16639;51.488;0.152;2024-03-17T00:05:38;11.20;99.90
29731;DHT22;16639;51.488;0.152;2024-03-17T00:08:04;10.70;99.90
29731;DHT22;16639;51.488;0.152;2024-03-17T00:10:32;10.70;99.90
29731;DHT22;16639;51.488;0.152;2024-03-17T00:12:58;10.70;99.90
29731;DHT22;16639;51.488;0.152;2024-03-17T00:15:25;10.70;99.90
29731;DHT22;16639;51.488;0.152;2024-03-17T00:17:52;10.70;99.90
29731;DHT22;16639;51.488;0.152;2024-03-17T00:20:18;10.70;99.90
29731;DHT22;16639;51.488;0.152;2024-03-17T00:22:48;10.80;99.90
29731;DHT22;16639;51.488;0.152;2024-03-17T00:25:15;10.80;99.90
29731;DHT22;16639;51.488;0.152;2024-03-17T00:27:41;10.80;99.90
29731;DHT22;16639;51.488;0.152;2024-03-17T00:30:11;10.80;99.90
29731;DHT22;16639;51.488;0.152;2024-03-17T00:32:42;10.80;99.90
29731;DHT22;16639;51.488;0.152;2024-03-17T00:35:10;11.40;99.90
29731;DHT22;16639;51.488;0.152;2024-03-17T00:37:40;10.80;99.90
29731;DHT22;16639;51.488;0.152;2024-03-17T00:40:06;10.80;99.90
29731;DHT22;16639;51.488;0.152;2024-03-17T00:42:33;10.90;99.90
29731;DHT22;16639;51.488;0.152;2024-03-17T00:44:59;10.90;99.90
29731;DHT22;16639;51.488;0.152;2024-03-17T00:47:26;10.90;99.90
29731;DHT22;16639;51.488;0.152;2024-03-17T00:49:53;10.90;99.90
29731;DHT22;16639;51.488;0.152;2024-03-17T00:52:19;10.60;99.90
29731;DHT22;16639;51.488;0.152;2024-03-17T00:54:48;10.80;99.90
29731;DHT22;16639;51.488;0.152;2024-03-17T00:57:15;10.80;99.90
29731;DHT22;16639;51.488;0.152;2024-03-17T00:59:42;10.80;99.90
29731;DHT22;16639;51.488;0.152;2024-03-17T01:02:12;10.50;99.90
29731;DHT22;16639;51.488;0.152;2024-03-17T01:04:40;10.80;99.90
29731;DHT22;16639;51.488;0.152;2024-03-17T01:07:06;10.80;99.90
29731;DHT22;16639;51.488;0.152;2024-03-17T01:09:33;10.80;99.90
29731;DHT22;16639;51.488;0.152;2024-03-17T01:11:59;10.80;99.90
29731;DHT22;16639;51.488;0.152;2024-03-17T01:14:29;10.80;99.90
29731;DHT22;16639;51.488;0.152;2024-03-17T01:16:57;10.80;99.90
29731;DHT22;16639;51.488;0.152;2024-03-17T01:19:23;10.80;99.90
29731;DHT22;16639;51.488;0.152;2024-03-17T01:21:51;10.80;99.90
29731;DHT22;16639;51.488;0.152;2024-03-17T01:24:18;10.80;99.90
29731;DHT22;16639;51.488;0.152;2024-03-17T01:26:44;10.80;99.90
29731;DHT22;16639;51.488;0.152;2024-03-17T01:29:12;10.80;99.90
29731;DHT22;16639;51.488;0.152;2024-03-17T01:31:38;10.80;99.90
29731;DHT22;16639;51.488;0.152;2024-03-17T01:34:04;10.90;99.90
29731;DHT22;16639;51.488;0.152;2024-03-17T01:36:31;11.00;99.90
29731;DHT22;16639;51.488;0.152;2024-03-17T01:38:57;10.50;99.90
29731;DHT22;16639;51.488;0.152;2024-03-17T01:41:24;10.80;99.90
29731;DHT22;16639;51.488;0.152;2024-03-17T01:43:50;10.80;99.90
29731;DHT22;16639;51.488;0.152;2024-03-17T01:46:17;10.80;99.90
29731;DHT22;16639;51.488;0.152;2024-03-17T01:48:44;11.60;99.90
29731;DHT22;16639;51.488;0.152;2024-03-17T01:51:13;10.80;99.90
29731;DHT22;16639;51.488;0.152;2024-03-17T01:53:42;10.90;99.90
29731;DHT22;16639;51.488;0.152;2024-03-17T01:56:10;10.90;99.90
29731;DHT22;16639;51.488;0.152;2024-03-17T01:58:37;10.90;99.90
29731;DHT22;16639;51.488;0.152;2024-03-17T02:01:04;10.90;99.90
29731;DHT22;16639;51.488;0.152;2024-03-17T02:03:31;11.00;99.90
29731;DHT22;16639;51.488;0.152;2024-03-17T02:05:58;10.90;99.90
29731;DHT22;16639;51.488;0.152;2024-03-17T02:08:25;10.90;99.90
29731;DHT22;16639;51.488;0.152;2024-03-17T02:10:55;11.00;99.90
29731;DHT22;16639;51.488;0.152;2024-03-17T02:13:21;10.80;99.90
29731;DHT22;16639;51.488;0.152;2024-03-17T02:15:48;11.00;99.90
29731;DHT22;16639;51.488;0.152;2024-03-17T02:18:14;10.90;99.90
29731;DHT22;16639;51.488;0.152;2024-03-17T02:20:41;10.90;99.90
29731;DHT22;16639;51.488;0.152;2024-03-17T02:23:26;11.00;99.90
29731;DHT22;16639;51.488;0.152;2024-03-17T02:25:53;10.90;99.90
29731;DHT22;16639;51.488;0.152;2024-03-17T02:28:19;10.90;99.90
29731;DHT22;16639;51.488;0.152;2024-03-17T02:30:46;10.90;99.90
29731;DHT22;16639;51.488;0.152;2024-03-17T02:33:13;10.90;99.90
29731;DHT22;16639;51.488;0.152;2024-03-17T02:35:39;10.90;99.90
29731;DHT22;16639;51.488;0.152;2024-03-17T02:38:05;10.90;99.90
29731;DHT22;16639;51.488;0.152;2024-03-17T02:40:34;10.90;99.90
29731;DHT22;16639;51.488;0.152;2024-03-17T02:43:00;11.00;99.90
29731;DHT22;16639;51.488;0.152;2024-03-17T02:45:26;11.00;99.90
29731;DHT22;16639;51.488;0.152;2024-03-17T02:47:53;11.00;99.90
29731;DHT22;16639;51.488;0.152;2024-03-17T02:50:19;11.10;99.90
29731;DHT22;16639;51.488;0.152;2024-03-17T02:52:45;11.00;99.90
29731;DHT22;16639;51.488;0.152;2024-03-17T02:55:12;11.00;99.90
29731;DHT22;16639;51.488;0.152;2024-03-17T02:57:38;11.10;99.90
29731;DHT22;16639;51.488;0.152;2024-03-17T03:00:07;11.10;99.90
29731;DHT22;16639;51.488;0.152;2024-03-17T03:02:39;11.10;99.90
29731;DHT22;16639;51.488;0.152;2024-03-17T03:05:05;11.10;99.90
29731;DHT22;16639;51.488;0.152;2024-03-17T03:07:32;11.10;99.90
29731;DHT22;16639;51.488;0.152;2024-03-17T03:09:58;11.20;99.90
29731;DHT22;16639;51.488;0.152;2024-03-17T03:12:25;11.20;99.90
29731;DHT22;16639;51.488;0.152;2024-03-17T03:14:51;11.20;99.90
29731;DHT22;16639;51.488;0.152;2024-03-17T03:17:17;11.20;99.90
29731;DHT22;16639;51.488;0.152;2024-03-17T03:19:44;11.20;99.90
29731;DHT22;16639;51.488;0.152;2024-03-17T03:22:10;11.10;99.90
29731;DHT22;16639;51.488;0.152;2024-03-17T03:24:37;10.50;99.90
29731;DHT22;16639;51.488;0.152;2024-03-17T03:27:03;11.10;99.90
29731;DHT22;16639;51.488;0.152;2024-03-17T03:29:30;11.10;99.90
29731;DHT22;16639;51.488;0.152;2024-03-17T03:31:56;11.20;99.90
29731;DHT22;16639;51.488;0.152;2024-03-17T03:34:25;11.20;99.90
29731;DHT22;16639;51.488;0.152;2024-03-17T03:36:51;11.20;99.90
29731;DHT22;16639;51.488;0.152;2024-03-17T03:39:18;11.20;99.90
29731;DHT22;16639;51.488;0.152;2024-03-17T03:41:45;11.20;99.90
29731;DHT22;16639;51.488;0.152;2024-03-17T03:44:12;11.20;99.90
29731;DHT22;16639;51.488;0.152;2024-03-17T03:46:39;11.10;99.90
29731;DHT22;16639;51.488;0.152;2024-03-17T03:49:06;11.10;99.90
29731;DHT22;16639;51.488;0.152;2024-03-17T03:51:32;11.20;99.90
29731;DHT22;16639;51.488;0.152;2024-03-17T03:53:59;11.20;99.90
29731;DHT22;16639;51.488;0.152;2024-03-17T03:56:25;11.20;99.90
29731;DHT22;16639;51.488;0.152;2024-03-17T03:58:52;11.30;99.90
29731;DHT22;16639;51.488;0.152;2024-03-17T04:01:18;11.30;99.90
29731;DHT22;16639;51.488;0.152;2024-03-17T04:03:48;11.30;99.90
29731;DHT22;16639;51.488;0.152;2024-03-17T04:06:15;11.30;99.90
29731;DHT22;16639;51.488;0.152;2024-03-17T04:08:43;11.20;99.90
29731;DHT22;16639;51.488;0.152;2024-03-17T04:11:10;11.30;99.90
29731;DHT22;16639;51.488;0.152;2024-03-17T04:13:37;11.30;99.90
29731;DHT22;16639;51.488;0.152;2024-03-17T04:16:04;11.30;99.90
29731;DHT22;16639;51.488;0.152;2024-03-17T04:18:32;11.30;99.90
29731;DHT22;16639;51.488;0.152;2024-03-17T04:21:06;11.30;99.90
29731;DHT22;16639;51.488;0.152;2024-03-17T04:23:33;11.30;99.90
29731;DHT22;16639;51.488;0.152;2024-03-17T04:26:00;11.30;99.90
29731;DHT22;16639;51.488;0.152;2024-03-17T04:28:27;11.30;99.90
29731;DHT22;16639;51.488;0.152;2024-03-17T04:31:02;11.90;99.90
29731;DHT22;16639;51.488;0.152;2024-03-17T04:33:31;11.30;99.90
29731;DHT22;16639;51.488;0.152;2024-03-17T04:35:58;11.30;99.90
29731;DHT22;16639;51.488;0.152;2024-03-17T04:38:24;11.30;99.90
29731;DHT22;16639;51.488;0.152;2024-03-17T04:40:52;11.20;99.90
29731;DHT22;16639;51.488;0.152;2024-03-17T04:43:25;11.30;99.90
29731;DHT22;16639;51.488;0.152;2024-03-17T04:45:59;11.30;99.90
29731;DHT22;16639;51.488;0.152;2024-03-17T04:48:26;11.30;99.90
29731;DHT22;16639;51.488;0.152;2024-03-17T04:50:53;11.40;99.90
29731;DHT22;16639;51.488;0.152;2024-03-17T04:53:20;11.40;99.90
29731;DHT22;16639;51.488;0.152;2024-03-17T04:55:46;11.30;99.90
29731;DHT22;16639;51.488;0.152;2024-03-17T04:58:13;11.40;99.90
29731;DHT22;16639;51.488;0.152;2024-03-17T05:00:39;11.40;99.90
29731;DHT22;16639;51.488;0.152;2024-03-17T05:03:05;11.40;99.90
29731;DHT22;16639;51.488;0.152;2024-03-17T05:05:32;11.50;99.90
29731;DHT22;16639;51.488;0.152;2024-03-17T05:07:58;11.40;99.90
29731;DHT22;16639;51.488;0.152;2024-03-17T05:10:25;11.50;99.90
29731;DHT22;16639;51.488;0.152;2024-03-17T05:12:51;11.40;99.90
29731;DHT22;16639;51.488;0.152;2024-03-17T05:15:17;11.40;99.90
29731;DHT22;16639;51.488;0.152;2024-03-17T05:17:43;11.40;99.90
29731;DHT22;16639;51.488;0.152;2024-03-17T05:20:10;11.30;99.90
29731;DHT22;16639;51.488;0.152;2024-03-17T05:22:36;11.30;99.90
29731;DHT22;16639;51.488;0.152;2024-03-17T05:25:03;11.40;99.90
29731;DHT22;16639;51.488;0.152;2024-03-17T05:27:29;11.40;99.90
29731;DHT22;16639;51.488;0.152;2024-03-17T05:29:56;11.40;99.90
29731;DHT22;16639;51.488;0.152;2024-03-17T05:32:24;11.50;99.90
29731;DHT22;16639;51.488;0.152;2024-03-17T05:34:52;12.20;99.90
29731;DHT22;16639;51.488;0.152;2024-03-17T05:37:18;11.40;99.90
29731;DHT22;16639;51.488;0.152;2024-03-17T05:39:45;11.40;99.90
29731;DHT22;16639;51.488;0.152;2024-03-17T05:42:12;11.40;99.90
29731;DHT22;16639;51.488;0.152;2024-03-17T05:44:39;11.40;99.90
29731;DHT22;16639;51.488;0.152;2024-03-17T05:47:19;11.40;99.90
29731;DHT22;16639;51.488;0.152;2024-03-17T05:49:46;11.40;99.90
29731;DHT22;16639;51.488;0.152;2024-03-17T05:52:12;11.40;99.90
29731;DHT22;16639;51.488;0.152;2024-03-17T05:54:39;11.40;99.90
29731;DHT22;16639;51.488;0.152;2024-03-17T05:57:06;11.40;99.90
29731;DHT22;16639;51.488;0.152;2024-03-17T05:59:33;11.40;99.90
29731;DHT22;16639;51.488;0.152;2024-03-17T06:01:59;11.40;99.90
29731;DHT22;16639;51.488;0.152;2024-03-17T06:04:26;11.50;99.90
29731;DHT22;16639;51.488;0.152;2024-03-17T06:06:52;11.40;99.90
29731;DHT22;16639;51.488;0.152;2024-03-17T06:09:18;11.40;99.90
29731;DHT22;16639;51.488;0.152;2024-03-17T06:11:46;11.40;99.90
29731;DHT22;16639;51.488;0.152;2024-03-17T06:14:13;11.40;99.90
29731;DHT22;16639;51.488;0.152;2024-03-17T06:16:39;11.40;99.90
29731;DHT22;16639;51.488;0.152;2024-03-17T06:19:06;11.40;99.90
29731;DHT22;16639;51.488;0.152;2024-03-17T06:21:33;11.40;99.90
29731;DHT22;16639;51.488;0.152;2024-03-17T06:23:59;11.50;99.90
29731;DHT22;16639;51.488;0.152;2024-03-17T06:26:26;11.40;99.90
29731;DHT22;16639;51.488;0.152;2024-03-17T06:28:53;11.40;99.90
29731;DHT22;16639;51.488;0.152;2024-03-17T06:31:19;11.40;99.90
29731;DHT22;16639;51.488;0.152;2024-03-17T06:33:45;11.40;99.90
29731;DHT22;16639;51.488;0.152;2024-03-17T06:36:12;11.40;99.90
29731;DHT22;16639;51.488;0.152;2024-03-17T06:38:39;11.40;99.90
29731;DHT22;16639;51.488;0.152;2024-03-17T06:41:07;11.40;99.90
29731;DHT22;16639;51.488;0.152;2024-03-17T06:43:33;11.40;99.90
29731;DHT22;16639;51.488;0.152;2024-03-17T06:46:00;11.60;99.90
29731;DHT22;16639;51.488;0.152;2024-03-17T06:48:28;11.50;99.90
29731;DHT22;16639;51.488;0.152;2024-03-17T06:50:54;11.40;99.90
29731;DHT22;16639;51.488;0.152;2024-03-17T06:53:21;11.40;99.90
29731;DHT22;16639;51.488;0.152;2024-03-17T06:55:58;11.40;99.90
29731;DHT22;16639;51.488;0.152;2024-03-17T06:58:26;11.40;99.90
29731;DHT22;16639;51.488;0.152;2024-03-17T07:01:03;11.40;99.90
29731;DHT22;16639;51.488;0.152;2024-03-17T07:03:31;12.90;99.90
29731;DHT22;16639;51.488;0.152;2024-03-17T07:05:59;11.50;99.90
29731;DHT22;16639;51.488;0.152;2024-03-17T07:08:29;11.40;99.90
29731;DHT22;16639;51.488;0.152;2024-03-17T07:11:04;11.50;99.90
29731;DHT22;16639;51.488;0.152;2024-03-17T07:13:36;11.50;99.90
29731;DHT22;16639;51.488;0.152;2024-03-17T07:16:03;11.50;99.90
29731;DHT22;16639;51.488;0.152;2024-03-17T07:18:32;11.50;99.90
29731;DHT22;16639;51.488;0.152;2024-03-17T07:21:00;11.50;99.90
29731;DHT22;16639;51.488;0.152;2024-03-17T07:23:27;11.50;99.90
29731;DHT22;16639;51.488;0.152;2024-03-17T07:25:55;11.40;99.90
29731;DHT22;16639;51.488;0.152;2024-03-17T07:28:22;11.60;99.90
29731;DHT22;16639;51.488;0.152;2024-03-17T07:30:55;11.60;99.90
29731;DHT22;16639;51.488;0.152;2024-03-17T07:33:23;12.20;99.90
29731;DHT22;16639;51.488;0.152;2024-03-17T07:35:54;11.60;99.90
29731;DHT22;16639;51.488;0.152;2024-03-17T07:38:23;11.70;99.90
29731;DHT22;16639;51.488;0.152;2024-03-17T07:41:01;11.70;99.90
29731;DHT22;16639;51.488;0.152;2024-03-17T07:43:28;11.70;99.90
29731;DHT22;16639;51.488;0.152;2024-03-17T07:46:09;11.70;99.90
29731;DHT22;16639;51.488;0.152;2024-03-17T07:48:41;11.80;99.90
29731;DHT22;16639;51.488;0.152;2024-03-17T07:51:13;11.80;99.90
29731;DHT22;16639;51.488;0.152;2024-03-17T07:53:41;11.80;99.90
29731;DHT22;16639;51.488;0.152;2024-03-17T07:56:09;11.80;99.90
29731;DHT22;16639;51.488;0.152;2024-03-17T07:58:40;11.80;99.90
29731;DHT22;16639;51.488;0.152;2024-03-17T08:01:09;11.90;99.90
29731;DHT22;16639;51.488;0.152;2024-03-17T08:03:37;12.00;99.90
29731;DHT22;16639;51.488;0.152;2024-03-17T08:06:06;11.90;99.90
29731;DHT22;16639;51.488;0.152;2024-03-17T08:08:33;11.90;99.90
29731;DHT22;16639;51.488;0.152;2024-03-17T08:11:00;11.90;99.90
29731;DHT22;16639;51.488;0.152;2024-03-17T08:13:31;12.00;99.90
29731;DHT22;16639;51.488;0.152;2024-03-17T08:16:03;12.00;99.90
29731;DHT22;16639;51.488;0.152;2024-03-17T08:18:29;12.00;99.90
29731;DHT22;16639;51.488;0.152;2024-03-17T08:20:55;12.00;99.90
29731;DHT22;16639;51.488;0.152;2024-03-17T08:23:22;11.80;99.90
29731;DHT22;16639;51.488;0.152;2024-03-17T08:25:53;12.10;99.90
29731;DHT22;16639;51.488;0.152;2024-03-17T08:28:21;12.10;99.90
29731;DHT22;16639;51.488;0.152;2024-03-17T08:30:54;12.10;99.90
29731;DHT22;16639;51.488;0.152;2024-03-17T08:33:21;12.10;99.90
29731;DHT22;16639;51.488;0.152;2024-03-17T08:38:24;12.40;99.90
29731;DHT22;16639;51.488;0.152;2024-03-17T08:40:55;12.20;99.90
29731;DHT22;16639;51.488;0.152;2024-03-17T08:43:23;12.20;99.90
29731;DHT22;16639;51.488;0.152;2024-03-17T08:46:03;12.20;99.90
29731;DHT22;16639;51.488;0.152;2024-03-17T08:48:31;12.20;99.90
29731;DHT22;16639;51.488;0.152;2024-03-17T08:50:58;12.20;99.90
29731;DHT22;16639;51.488;0.152;2024-03-17T08:53:25;12.20;99.90
29731;DHT22;16639;51.488;0.152;2024-03-17T08:55:53;12.20;99.90
29731;DHT22;16639;51.488;0.152;2024-03-17T08:58:20;12.20;99.90
29731;DHT22;16639;51.488;0.152;2024-03-17T09:00:46;12.20;99.90
29731;DHT22;16639;51.488;0.152;2024-03-17T09:03:13;12.20;99.90
29731;DHT22;16639;51.488;0.152;2024-03-17T09:05:42;12.20;99.90
29731;DHT22;16639;51.488;0.152;2024-03-17T09:08:20;12.30;99.90
29731;DHT22;16639;51.488;0.152;2024-03-17T09:10:49;12.30;99.90
29731;DHT22;16639;51.488;0.152;2024-03-17T09:13:20;12.30;99.90
29731;DHT22;16639;51.488;0.152;2024-03-17T09:15:55;12.30;99.90
29731;DHT22;16639;51.488;0.152;2024-03-17T09:18:32;12.40;99.90
29731;DHT22;16639;51.488;0.152;2024-03-17T09:21:01;12.40;99.90
29731;DHT22;16639;51.488;0.152;2024-03-17T09:23:29;12.40;99.90
29731;DHT22;16639;51.488;0.152;2024-03-17T09:26:03;12.40;99.90
29731;DHT22;16639;51.488;0.152;2024-03-17T09:28:30;12.40;99.90
29731;DHT22;16639;51.488;0.152;2024-03-17T09:30:57;12.50;99.90
29731;DHT22;16639;51.488;0.152;2024-03-17T09:33:25;12.50;99.90
29731;DHT22;16639;51.488;0.152;2024-03-17T09:36:00;12.50;99.90
29731;DHT22;16639;51.488;0.152;2024-03-17T09:38:27;12.50;99.90
29731;DHT22;16639;51.488;0.152;2024-03-17T09:40:54;12.60;99.90
29731;DHT22;16639;51.488;0.152;2024-03-17T09:43:24;12.60;99.90
29731;DHT22;16639;51.488;0.152;2024-03-17T09:45:54;12.60;99.90
29731;DHT22;16639;51.488;0.152;2024-03-17T09:48:27;12.60;99.90
29731;DHT22;16639;51.488;0.152;2024-03-17T09:51:01;12.70;99.90
29731;DHT22;16639;51.488;0.152;2024-03-17T09:53:29;12.70;99.90
29731;DHT22;16639;51.488;0.152;2024-03-17T09:58:24;12.60;99.90
29731;DHT22;16639;51.488;0.152;2024-03-17T10:00:51;12.70;99.90
29731;DHT22;16639;51.488;0.152;2024-03-17T10:03:39;12.70;99.90
29731;DHT22;16639;51.488;0.152;2024-03-17T10:06:14;12.70;99.90
29731;DHT22;16639;51.488;0.152;2024-03-17T10:08:45;12.70;99.90
29731;DHT22;16639;51.488;0.152;2024-03-17T10:11:20;12.70;99.90
29731;DHT22;16639;51.488;0.152;2024-03-17T10:14:05;12.70;99.90
29731;DHT22;16639;51.488;0.152;2024-03-17T10:16:32;12.70;99.90
29731;DHT22;16639;51.488;0.152;2024-03-17T10:21:46;12.70;99.90
29731;DHT22;16639;51.488;0.152;2024-03-17T10:24:20;12.70;99.90
29731;DHT22;16639;51.488;0.152;2024-03-17T10:26:52;12.90;99.90
29731;DHT22;16639;51.488;0.152;2024-03-17T10:29:22;12.90;99.90
29731;DHT22;16639;51.488;0.152;2024-03-17T10:31:51;13.00;99.90
29731;DHT22;16639;51.488;0.152;2024-03-17T10:34:19;13.00;99.90
29731;DHT22;16639;51.488;0.152;2024-03-17T10:36:48;13.00;99.90
29731;DHT22;16639;51.488;0.152;2024-03-17T10:39:26;13.30;99.90
29731;DHT22;16639;51.488;0.152;2024-03-17T10:41:59;13.00;99.90
29731;DHT22;16639;51.488;0.152;2024-03-17T10:44:27;13.10;99.90
29731;DHT22;16639;51.488;0.152;2024-03-17T10:46:56;13.10;99.90
29731;DHT22;16639;51.488;0.152;2024-03-17T10:49:31;13.10;99.90
29731;DHT22;16639;51.488;0.152;2024-03-17T10:52:00;13.10;99.90
29731;DHT22;16639;51.488;0.152;2024-03-17T10:54:27;13.10;99.90
29731;DHT22;16639;51.488;0.152;2024-03-17T10:57:24;13.10;99.90
29731;DHT22;16639;51.488;0.152;2024-03-17T10:59:52;13.10;99.90
29731;DHT22;16639;51.488;0.152;2024-03-17T11:02:23;13.10;99.90
29731;DHT22;16639;51.488;0.152;2024-03-17T11:04:55;13.10;99.90
29731;DHT22;16639;51.488;0.152;2024-03-17T11:07:22;13.10;99.90
29731;DHT22;16639;51.488;0.152;2024-03-17T11:09:51;13.10;99.90
29731;DHT22;16639;51.488;0.152;2024-03-17T11:12:48;13.20;99.90
29731;DHT22;16639;51.488;0.152;2024-03-17T11:20:42;13.30;99.90
29731;DHT22;16639;51.488;0.152;2024-03-17T11:23:09;13.30;99.90
29731;DHT22;16639;51.488;0.152;2024-03-17T11:25:52;13.30;99.90
29731;DHT22;16639;51.488;0.152;2024-03-17T11:34:28;13.30;99.90
29731;DHT22;16639;51.488;0.152;2024-03-17T11:36:55;13.30;99.90
29731;DHT22;16639;51.488;0.152;2024-03-17T11:39:45;13.40;99.90
29731;DHT22;16639;51.488;0.152;2024-03-17T11:42:13;13.40;99.90
29731;DHT22;16639;51.488;0.152;2024-03-17T11:44:55;13.40;99.90
29731;DHT22;16639;51.488;0.152;2024-03-17T11:47:21;13.50;99.90
29731;DHT22;16639;51.488;0.152;2024-03-17T11:49:49;13.50;99.90
29731;DHT22;16639;51.488;0.152;2024-03-17T11:52:17;13.60;99.90
29731;DHT22;16639;51.488;0.152;2024-03-17T11:54:46;13.60;99.90
29731;DHT22;16639;51.488;0.152;2024-03-17T11:57:21;13.60;99.90
29731;DHT22;16639;51.488;0.152;2024-03-17T11:59:51;13.70;99.90
29731;DHT22;16639;51.488;0.152;2024-03-17T12:02:31;13.60;99.90
29731;DHT22;16639;51.488;0.152;2024-03-17T12:05:00;13.60;99.90
29731;DHT22;16639;51.488;0.152;2024-03-17T12:07:27;13.60;99.90
29731;DHT22;16639;51.488;0.152;2024-03-17T12:09:56;13.50;99.90
29731;DHT22;16639;51.488;0.152;2024-03-17T12:12:25;13.50;99.90
29731;DHT22;16639;51.488;0.152;2024-03-17T12:14:57;13.40;99.90
29731;DHT22;16639;51.488;0.152;2024-03-17T12:17:24;13.40;99.90
29731;DHT22;16639;51.488;0.152;2024-03-17T12:19:51;13.40;99.90
29731;DHT22;16639;51.488;0.152;2024-03-17T12:22:18;13.50;99.90
29731;DHT22;16639;51.488;0.152;2024-03-17T12:24:52;13.50;99.90
29731;DHT22;16639;51.488;0.152;2024-03-17T12:27:20;13.50;99.90
29731;DHT22;16639;51.488;0.152;2024-03-17T12:29:52;13.40;99.90
29731;DHT22;16639;51.488;0.152;2024-03-17T12:32:20;13.50;99.90
29731;DHT22;16639;51.488;0.152;2024-03-17T12:34:54;13.60;99.90
29731;DHT22;16639;51.488;0.152;2024-03-17T12:37:23;13.60;99.90
29731;DHT22;16639;51.488;0.152;2024-03-17T12:39:49;13.70;99.90
29731;DHT22;16639;51.488;0.152;2024-03-17T12:42:23;13.70;99.90
29731;DHT22;16639;51.488;0.152;2024-03-17T12:45:00;13.80;99.90
29731;DHT22;16639;51.488;0.152;2024-03-17T12:47:31;13.80;99.90
29731;DHT22;16639;51.488;0.152;2024-03-17T12:49:59;13.90;99.90
29731;DHT22;16639;51.488;0.152;2024-03-17T12:52:27;13.90;99.90
29731;DHT22;16639;51.488;0.152;2024-03-17T12:55:05;13.90;99.90
29731;DHT22;16639;51.488;0.152;2024-03-17T13:01:03;15.50;99.90
29731;DHT22;16639;51.488;0.152;2024-03-17T13:03:34;14.00;99.90
29731;DHT22;16639;51.488;0.152;2024-03-17T13:06:02;14.00;99.90
29731;DHT22;16639;51.488;0.152;2024-03-17T13:08:33;14.10;99.90
29731;DHT22;16639;51.488;0.152;2024-03-17T13:11:00;14.10;99.90
29731;DHT22;16639;51.488;0.152;2024-03-17T13:13:26;14.10;99.90
29731;DHT22;16639;51.488;0.152;2024-03-17T13:15:53;14.30;99.90
29731;DHT22;16639;51.488;0.152;2024-03-17T13:18:20;14.80;99.90
29731;DHT22;16639;51.488;0.152;2024-03-17T13:20:47;14.20;99.90
29731;DHT22;16639;51.488;0.152;2024-03-17T13:23:16;14.20;99.90
29731;DHT22;16639;51.488;0.152;2024-03-17T13:25:42;14.20;99.90
29731;DHT22;16639;51.488;0.152;2024-03-17T13:28:11;14.30;99.90
29731;DHT22;16639;51.488;0.152;2024-03-17T13:30:37;14.30;99.90
29731;DHT22;16639;51.488;0.152;2024-03-17T13:33:04;14.30;99.90
29731;DHT22;16639;51.488;0.152;2024-03-17T13:35:36;14.40;99.90
29731;DHT22;16639;51.488;0.152;2024-03-17T13:38:09;14.30;99.90
29731;DHT22;16639;51.488;0.152;2024-03-17T13:40:37;14.40;99.90
29731;DHT22;16639;51.488;0.152;2024-03-17T13:43:05;14.40;99.90
29731;DHT22;16639;51.488;0.152;2024-03-17T13:45:38;14.40;99.90
29731;DHT22;16639;51.488;0.152;2024-03-17T13:48:05;14.60;99.90
29731;DHT22;16639;51.488;0.152;2024-03-17T13:50:32;14.50;99.90
29731;DHT22;16639;51.488;0.152;2024-03-17T13:52:59;14.50;99.90
29731;DHT22;16639;51.488;0.152;2024-03-17T13:55:29;14.40;99.90
29731;DHT22;16639;51.488;0.152;2024-03-17T13:57:56;14.50;99.90
29731;DHT22;16639;51.488;0.152;2024-03-17T14:00:24;14.50;99.90
29731;DHT22;16639;51.488;0.152;2024-03-17T14:02:53;14.30;99.90
29731;DHT22;16639;51.488;0.152;2024-03-17T14:05:22;14.40;99.90
29731;DHT22;16639;51.488;0.152;2024-03-17T14:07:49;14.40;99.90
29731;DHT22;16639;51.488;0.152;2024-03-17T14:10:19;14.40;99.90
29731;DHT22;16639;51.488;0.152;2024-03-17T14:12:46;14.40;99.90
29731;DHT22;16639;51.488;0.152;2024-03-17T14:15:14;14.40;99.90
29731;DHT22;16639;51.488;0.152;2024-03-17T14:17:42;14.40;99.90
29731;DHT22;16639;51.488;0.152;2024-03-17T14:20:10;14.40;99.90
29731;DHT22;16639;51.488;0.152;2024-03-17T14:22:46;14.40;99.90
29731;DHT22;16639;51.488;0.152;2024-03-17T14:25:24;14.40;99.90
29731;DHT22;16639;51.488;0.152;2024-03-17T14:27:52;14.40;99.90
29731;DHT22;16639;51.488;0.152;2024-03-17T14:30:19;14.30;99.90
29731;DHT22;16639;51.488;0.152;2024-03-17T14:32:45;14.30;99.90
29731;DHT22;16639;51.488;0.152;2024-03-17T14:35:18;14.70;99.90
29731;DHT22;16639;51.488;0.152;2024-03-17T14:37:47;14.30;99.90
29731;DHT22;16639;51.488;0.152;2024-03-17T14:40:18;14.30;99.90
29731;DHT22;16639;51.488;0.152;2024-03-17T14:42:50;14.20;99.90
29731;DHT22;16639;51.488;0.152;2024-03-17T14:45:20;14.10;99.90
29731;DHT22;16639;51.488;0.152;2024-03-17T14:47:47;14.10;99.90
29731;DHT22;16639;51.488;0.152;2024-03-17T14:50:13;14.20;99.90
29731;DHT22;16639;51.488;0.152;2024-03-17T14:52:40;14.10;99.90
29731;DHT22;16639;51.488;0.152;2024-03-17T14:55:10;14.20;99.90
29731;DHT22;16639;51.488;0.152;2024-03-17T14:57:40;14.20;99.90
29731;DHT22;16639;51.488;0.152;2024-03-17T15:00:08;14.20;99.90
29731;DHT22;16639;51.488;0.152;2024-03-17T15:02:46;14.10;99.90
29731;DHT22;16639;51.488;0.152;2024-03-17T15:05:14;14.10;99.90
29731;DHT22;16639;51.488;0.152;2024-03-17T15:07:48;14.10;99.90
29731;DHT22;16639;51.488;0.152;2024-03-17T15:10:14;14.10;99.90
29731;DHT22;16639;51.488;0.152;2024-03-17T15:12:42;14.10;99.90
29731;DHT22;16639;51.488;0.152;2024-03-17T15:15:09;14.10;99.90
29731;DHT22;16639;51.488;0.152;2024-03-17T15:17:36;14.20;99.90
29731;DHT22;16639;51.488;0.152;2024-03-17T15:20:03;14.20;99.90
29731;DHT22;16639;51.488;0.152;2024-03-17T15:22:51;14.40;99.90
29731;DHT22;16639;51.488;0.152;2024-03-17T15:25:18;14.20;99.90
29731;DHT22;16639;51.488;0.152;2024-03-17T15:27:46;14.30;99.90
29731;DHT22;16639;51.488;0.152;2024-03-17T15:30:16;14.20;99.90
29731;DHT22;16639;51.488;0.152;2024-03-17T15:32:46;14.30;99.90
29731;DHT22;16639;51.488;0.152;2024-03-17T15:35:13;14.40;99.90
29731;DHT22;16639;51.488;0.152;2024-03-17T15:37:42;14.40;99.90
29731;DHT22;16639;51.488;0.152;2024-03-17T15:40:09;14.40;99.90
29731;DHT22;16639;51.488;0.152;2024-03-17T15:42:46;14.30;99.90
29731;DHT22;16639;51.488;0.152;2024-03-17T15:45:13;14.20;99.90
29731;DHT22;16639;51.488;0.152;2024-03-17T15:47:39;14.20;99.90
29731;DHT22;16639;51.488;0.152;2024-03-17T15:50:06;14.20;99.90
29731;DHT22;16639;51.488;0.152;2024-03-17T15:52:33;14.20;99.90
29731;DHT22;16639;51.488;0.152;2024-03-17T15:55:02;14.20;99.90
29731;DHT22;16639;51.488;0.152;2024-03-17T15:57:31;13.70;99.90
29731;DHT22;16639;51.488;0.152;2024-03-17T15:59:58;14.20;99.90
29731;DHT22;16639;51.488;0.152;2024-03-17T16:02:28;14.20;99.90